Time;durP1;ratioP1;P1;durP2;ratioP2;P2;SDS_P1;SDS_P2;PMS_P1;PMS_P2;Temp;Humidity;BMP_temperature;BMP_pressure;BME280_temperature;BME280_humidity;BME280_pressure;Samples;Min_cycle;Max_cycle;Signal;HPM_P1;HPM_P2
2022/02/13 00:02:06;;;;;;;55.08;51.20;;;;;;;2.41;100.00;103038.78;5066564;28;20040;-80
2022/02/13 00:04:34;;;;;;;53.60;50.10;;;;;;;2.39;100.00;103043.31;5064756;28;20049;-80
2022/02/13 00:07:01;;;;;;;54.97;51.35;;;;;;;2.82;100.00;103034.50;5067804;28;20147;-79
2022/02/13 00:09:28;;;;;;;56.40;52.90;;;;;;;2.41;100.00;103048.44;5067388;28;20055;-80
2022/02/13 00:11:56;;;;;;;55.28;51.95;;;;;;;2.40;100.00;103044.13;5068471;28;20044;-80
2022/02/13 00:14:23;;;;;;;54.10;50.60;;;;;;;2.40;100.00;103044.97;5068615;28;20060;-77
2022/02/13 00:16:50;;;;;;;56.83;53.38;;;;;;;2.32;100.00;103038.50;5064223;28;20474;-80
2022/02/13 00:19:17;;;;;;;54.85;51.45;;;;;;;2.45;100.00;103050.78;5068545;28;20057;-81
2022/02/13 00:21:43;;;;;;;53.92;50.35;;;;;;;2.32;100.00;103041.97;5069205;28;20053;-80
2022/02/13 00:24:10;;;;;;;54.55;50.95;;;;;;;2.35;100.00;103040.94;5063454;28;20049;-79
2022/02/13 00:26:37;;;;;;;57.30;53.45;;;;;;;2.37;100.00;103033.84;5067615;28;20044;-80
2022/02/13 00:29:05;;;;;;;54.10;50.75;;;;;;;2.33;100.00;103043.69;5073346;28;20098;-80
2022/02/13 00:31:32;;;;;;;54.80;51.10;;;;;;;2.24;100.00;103042.47;5063430;28;20060;-79
2022/02/13 00:33:58;;;;;;;55.20;51.70;;;;;;;2.23;100.00;103038.13;5063641;28;20057;-80
2022/02/13 00:36:25;;;;;;;53.08;49.92;;;;;;;2.35;100.00;103043.56;5067179;28;20118;-81
2022/02/13 00:38:52;;;;;;;54.53;51.08;;;;;;;2.27;100.00;103039.66;5057262;28;20052;-79
2022/02/13 00:41:19;;;;;;;50.50;47.20;;;;;;;2.27;100.00;103038.81;5070183;28;20052;-80
2022/02/13 00:43:45;;;;;;;54.58;51.03;;;;;;;2.24;100.00;103031.97;5068019;28;20122;-80
2022/02/13 00:46:14;;;;;;;54.85;51.25;;;;;;;2.28;100.00;103032.63;5066212;28;20045;-80
2022/02/13 00:48:41;;;;;;;61.80;57.20;;;;;;;2.18;100.00;103036.72;5061173;28;20110;-81
2022/02/13 00:51:07;;;;;;;53.97;50.38;;;;;;;2.24;100.00;103034.59;5065558;28;20110;-79
2022/02/13 00:53:34;;;;;;;53.53;50.03;;;;;;;2.55;100.00;103031.84;5064533;28;20044;-80
2022/02/13 00:56:01;;;;;;;57.55;53.92;;;;;;;2.21;100.00;103029.53;5064759;28;20052;-80
2022/02/13 00:58:28;;;;;;;53.70;50.28;;;;;;;2.49;100.00;103033.91;5071136;28;20052;-80
2022/02/13 01:00:55;;;;;;;52.78;49.42;;;;;;;2.17;100.00;103024.56;5061251;28;20052;-81
2022/02/13 01:03:23;;;;;;;55.55;51.97;;;;;;;2.19;100.00;103022.72;5063279;28;20045;-80
2022/02/13 01:05:50;;;;;;;55.65;52.15;;;;;;;2.10;100.00;103020.66;5067510;28;20049;-81
2022/02/13 01:08:17;;;;;;;51.00;48.00;;;;;;;2.06;100.00;103020.00;5064303;28;20481;-82
2022/02/13 01:10:44;;;;;;;54.53;51.40;;;;;;;2.18;100.00;103015.75;5064342;28;20464;-81
2022/02/13 01:13:11;;;;;;;57.30;53.50;;;;;;;2.09;100.00;103009.31;5056096;28;20398;-80
2022/02/13 01:15:37;;;;;;;53.80;50.50;;;;;;;2.04;100.00;103003.50;5062749;28;20460;-79
2022/02/13 01:18:04;;;;;;;52.72;49.28;;;;;;;1.96;100.00;103005.75;5063225;28;20044;-80
2022/02/13 01:20:33;;;;;;;56.10;52.70;;;;;;;1.91;100.00;103007.84;5066359;28;20131;-80
2022/02/13 01:23:00;;;;;;;57.50;53.72;;;;;;;1.90;100.00;103006.13;5059598;28;20056;-80
2022/02/13 01:25:27;;;;;;;85.57;69.88;;;;;;;1.83;100.00;103006.50;5060818;28;20067;-79
2022/02/13 01:27:54;;;;;;;55.00;51.70;;;;;;;1.88;100.00;102993.13;5064905;28;20492;-79
2022/02/13 01:30:21;;;;;;;56.40;53.03;;;;;;;1.83;100.00;102998.63;5068436;28;20487;-80
2022/02/13 01:32:47;;;;;;;51.28;48.03;;;;;;;1.94;100.00;102991.91;5064122;28;20481;-80
2022/02/13 01:35:14;;;;;;;52.67;49.63;;;;;;;1.79;100.00;102991.91;5058910;28;20049;-80
2022/02/13 01:37:42;;;;;;;57.67;54.22;;;;;;;1.79;100.00;102989.28;5060378;28;20146;-79
2022/02/13 01:40:10;;;;;;;53.40;50.10;;;;;;;1.87;100.00;102983.56;5065033;28;20060;-80
2022/02/13 01:42:37;;;;;;;52.80;49.35;;;;;;;1.66;100.00;102977.00;5062612;28;20045;-79
2022/02/13 01:45:05;;;;;;;56.45;53.17;;;;;;;1.68;100.00;102975.97;5068724;28;20045;-79
2022/02/13 01:47:34;;;;;;;59.38;55.88;;;;;;;1.82;100.00;102975.16;5060798;28;20049;-83
2022/02/13 01:50:01;;;;;;;55.05;51.72;;;;;;;1.68;100.00;102969.91;5062975;28;20418;-80
2022/02/13 01:52:28;;;;;;;53.90;50.25;;;;;;;1.62;100.00;102970.28;5062996;28;20110;-80
2022/02/13 01:54:58;;;;;;;53.47;50.08;;;;;;;1.57;100.00;102968.78;5065294;28;20055;-79
2022/02/13 01:57:25;;;;;;;54.72;50.97;;;;;;;1.49;100.00;102968.41;5056017;28;20041;-80
2022/02/13 01:59:52;;;;;;;54.65;51.10;;;;;;;1.46;100.00;102975.59;5064891;28;20439;-80
2022/02/13 02:02:19;;;;;;;54.00;50.50;;;;;;;1.44;100.00;102965.19;5058472;28;20060;-78
2022/02/13 02:04:47;;;;;;;52.72;49.45;;;;;;;1.40;100.00;102970.72;5062921;28;20044;-81
2022/02/13 02:07:14;;;;;;;57.20;53.47;;;;;;;1.47;100.00;102958.94;5062489;28;20063;-79
2022/02/13 02:09:46;;;;;;;54.05;50.88;;;;;;;1.46;100.00;102965.13;5061640;28;20049;-82
2022/02/13 02:12:14;;;;;;;52.38;49.08;;;;;;;1.45;100.00;102963.41;5060267;28;20122;-79
2022/02/13 02:14:41;;;;;;;54.25;50.88;;;;;;;1.35;100.00;102958.72;5059411;28;20471;-78
2022/02/13 02:17:08;;;;;;;59.58;55.55;;;;;;;1.29;100.00;102960.88;5063002;28;20135;-80
2022/02/13 02:19:36;;;;;;;54.08;50.47;;;;;;;1.31;100.00;102966.88;5065705;28;20129;-78
2022/02/13 02:22:05;;;;;;;54.25;50.90;;;;;;;1.47;100.00;102956.31;5056532;28;20053;-80
2022/02/13 02:24:34;;;;;;;57.10;53.28;;;;;;;1.27;100.00;102968.84;5059709;28;20446;-80
2022/02/13 02:27:01;;;;;;;57.88;54.10;;;;;;;1.22;100.00;102963.00;5063555;28;20056;-81
2022/02/13 02:29:28;;;;;;;55.17;51.80;;;;;;;1.24;100.00;102963.78;5070126;28;20076;-80
2022/02/13 02:31:54;;;;;;;57.47;53.78;;;;;;;1.40;100.00;102955.84;5061595;28;20432;-80
2022/02/13 02:34:21;;;;;;;53.72;50.22;;;;;;;1.42;100.00;102966.22;5059189;28;20052;-81
2022/02/13 02:36:48;;;;;;;51.17;47.85;;;;;;;1.30;100.00;102971.28;5064159;28;20048;-79
2022/02/13 02:39:15;;;;;;;53.60;49.80;;;;;;;1.20;100.00;102971.88;5064498;28;20049;-79
2022/02/13 02:41:43;;;;;;;57.30;53.70;;;;;;;1.28;100.00;102967.88;5064547;28;20045;-79
2022/02/13 02:44:10;;;;;;;48.85;45.78;;;;;;;1.36;100.00;102973.53;5060446;28;20481;-80
2022/02/13 02:46:37;;;;;;;54.15;50.50;;;;;;;1.05;100.00;102974.44;5062777;28;20048;-80
2022/02/13 02:49:03;;;;;;;55.60;52.10;;;;;;;1.15;100.00;102969.56;5062390;28;20064;-79
2022/02/13 02:51:30;;;;;;;54.90;51.38;;;;;;;1.07;100.00;102977.00;5062861;28;20057;-78
2022/02/13 02:53:57;;;;;;;54.10;50.60;;;;;;;1.14;100.00;102981.78;5067737;28;20044;-80
2022/02/13 02:56:24;;;;;;;57.60;54.03;;;;;;;1.19;100.00;102972.81;5061933;28;20049;-80
2022/02/13 02:58:52;;;;;;;53.92;50.53;;;;;;;0.95;100.00;102973.31;5057060;28;20482;-81
2022/02/13 09:58:04;;;;;;;65.10;61.10;;;;;;;11.76;73.86;102837.19;5063394;23;20059;-85
2022/02/13 10:00:53;;;;;;;61.53;57.92;;;;;;;10.44;73.85;102830.31;5034720;28;20057;-86
2022/02/13 10:03:31;;;;;;;61.55;57.72;;;;;;;11.96;69.94;102829.78;5040593;28;20580;-85
2022/02/13 10:06:01;;;;;;;65.22;61.42;;;;;;;11.83;67.92;102824.88;5038248;28;20108;-83
2022/02/13 10:08:34;;;;;;;61.40;57.63;;;;;;;11.29;69.93;102816.41;5043075;28;20557;-83
2022/02/13 10:11:11;;;;;;;64.25;60.20;;;;;;;11.85;69.67;102821.09;5039350;28;20103;-85
2022/02/13 10:13:45;;;;;;;61.03;57.45;;;;;;;11.30;72.21;102810.09;5040498;28;20037;-85
2022/02/13 10:16:13;;;;;;;66.65;62.30;;;;;;;12.21;70.45;102815.50;5045845;28;20095;-82
2022/02/13 10:18:48;;;;;;;61.78;57.95;;;;;;;11.48;67.45;102796.69;5049372;28;20484;-84
2022/02/13 10:21:42;;;;;;;63.90;59.42;;;;;;;11.62;67.83;102802.22;5051272;28;20044;-84
2022/02/13 10:24:24;;;;;;;64.07;60.05;;;;;;;9.74;72.61;102798.28;5049561;28;20453;-84
2022/02/13 10:27:08;;;;;;;59.10;55.50;;;;;;;9.20;74.31;102793.78;5046333;28;20494;-84
2022/02/13 10:29:45;;;;;;;62.35;58.03;;;;;;;9.53;73.15;102797.66;5043897;28;20289;-84
2022/02/13 10:32:17;;;;;;;62.92;59.10;;;;;;;9.82;76.47;102786.88;5041482;28;20111;-86
2022/02/13 10:35:03;;;;;;;61.15;57.65;;;;;;;9.25;77.44;102779.13;5043971;28;20045;-84
2022/02/13 10:37:47;;;;;;;59.22;55.63;;;;;;;8.07;81.47;102782.13;5048987;28;20053;-86
2022/02/13 10:40:16;;;;;;;62.20;58.30;;;;;;;8.95;81.20;102777.56;5032661;28;20053;-86
2022/02/13 10:42:43;;;;;;;62.15;58.65;;;;;;;8.14;85.27;102770.03;5045283;28;20113;-86
2022/02/13 10:45:25;;;;;;;61.90;57.15;;;;;;;7.80;87.75;102769.56;5044911;28;20580;-86
2022/02/13 10:48:15;;;;;;;64.40;60.20;;;;;;;8.18;87.29;102755.53;5042327;28;20064;-85
2022/02/13 10:50:56;;;;;;;63.75;59.50;;;;;;;8.39;87.20;102746.63;5041400;28;20054;-85
2022/02/13 10:53:26;;;;;;;58.70;54.55;;;;;;;8.48;87.22;102745.78;5047134;28;20072;-85
2022/02/13 10:55:54;;;;;;;58.65;54.95;;;;;;;8.17;85.15;102743.28;5053253;28;20049;-85
2022/02/13 10:58:22;;;;;;;56.80;53.30;;;;;;;8.33;85.57;102739.22;5056423;28;20049;-86
2022/02/13 11:00:57;;;;;;;59.13;55.22;;;;;;;8.49;84.66;102728.91;5068730;28;20107;-86
2022/02/13 11:03:26;;;;;;;58.70;55.13;;;;;;;8.86;86.00;102720.13;5067429;28;20075;-86
2022/02/13 11:05:55;;;;;;;61.25;57.55;;;;;;;8.54;85.36;102720.53;5057233;28;20072;-86
2022/02/13 11:08:28;;;;;;;63.90;59.97;;;;;;;10.48;84.34;102716.59;5069369;28;20052;-84
2022/02/13 11:10:57;;;;;;;64.97;60.80;;;;;;;10.19;77.96;102699.09;5057268;28;20048;-86
2022/02/13 11:13:48;;;;;;;65.97;61.88;;;;;;;10.99;74.77;102706.91;5055264;28;20049;-86
2022/02/13 11:16:53;;;;;;;63.05;59.20;;;;;;;10.41;74.88;102700.47;5052354;28;20057;-86
2022/02/13 11:19:27;;;;;;;65.88;62.08;;;;;;;11.04;70.62;102696.59;5044670;28;20055;-86
2022/02/13 11:22:05;;;;;;;64.07;60.28;;;;;;;11.19;71.87;102696.81;5053770;28;20136;-86
2022/02/13 11:24:39;;;;;;;60.17;56.80;;;;;;;11.34;67.89;102689.88;5061963;28;20079;-87
2022/02/13 11:27:08;;;;;;;62.33;58.65;;;;;;;11.84;66.25;102677.47;5074597;28;20421;-86
2022/02/13 11:32:58;;;;;;;59.40;55.90;;;;;;;11.95;69.46;102671.00;5104547;23;20524;-77
2022/02/13 11:35:57;;;;;;;61.38;57.90;;;;;;;12.11;67.12;102665.66;5056387;28;20129;-79
2022/02/13 11:38:54;;;;;;;59.90;56.30;;;;;;;11.86;64.50;102659.50;5052683;28;20065;-77
2022/02/13 11:41:42;;;;;;;55.17;51.80;;;;;;;11.23;64.83;102664.44;5055029;28;20060;-80
2022/02/13 11:44:10;;;;;;;55.10;51.83;;;;;;;10.77;64.33;102663.94;5048757;28;20056;-80
2022/02/13 11:46:58;;;;;;;60.60;57.00;;;;;;;10.76;64.84;102654.28;5055490;28;20046;-81
2022/02/13 11:49:25;;;;;;;59.63;56.33;;;;;;;10.95;63.22;102647.91;5053295;28;20132;-81
2022/02/13 11:52:00;;;;;;;57.83;54.45;;;;;;;10.82;65.66;102647.50;5053071;28;20114;-78
2022/02/13 11:54:55;;;;;;;59.97;56.53;;;;;;;10.71;62.87;102648.63;5052179;28;20045;-79
2022/02/13 11:57:22;;;;;;;58.28;54.83;;;;;;;10.66;61.68;102639.47;5055885;28;20500;-78
2022/02/13 12:00:09;;;;;;;59.50;56.00;;;;;;;10.39;60.80;102638.69;5052849;28;20504;-80
2022/02/13 12:02:43;;;;;;;59.20;55.50;;;;;;;12.05;61.21;102624.56;5054193;28;20055;-79
2022/02/13 12:05:16;;;;;;;57.83;54.40;;;;;;;11.54;57.94;102623.06;5056442;28;20494;-80
2022/02/13 12:07:58;;;;;;;57.67;54.30;;;;;;;11.71;59.41;102622.06;5053596;28;20128;-78
2022/02/13 12:10:29;;;;;;;58.77;55.27;;;;;;;12.39;58.38;102615.47;5053557;28;20071;-79
2022/02/13 12:13:05;;;;;;;60.63;56.90;;;;;;;12.28;58.58;102605.19;5053843;28;20116;-81
2022/02/13 12:15:34;;;;;;;56.22;53.00;;;;;;;13.28;57.20;102597.34;5051103;28;21569;-79
2022/02/13 12:18:08;;;;;;;59.38;56.17;;;;;;;13.53;55.89;102600.69;5053898;28;20476;-79
2022/02/13 12:20:35;;;;;;;58.00;54.90;;;;;;;11.45;54.95;102595.63;5052087;28;20037;-78
2022/02/13 12:23:06;;;;;;;55.80;52.70;;;;;;;11.43;54.90;102590.44;5052914;28;20480;-80
2022/02/13 12:25:34;;;;;;;53.75;50.85;;;;;;;11.17;52.78;102587.13;5053929;28;20407;-79
2022/02/13 12:28:00;;;;;;;60.00;56.22;;;;;;;11.48;55.30;102581.97;5054472;28;20052;-79
2022/02/13 12:30:27;;;;;;;58.20;54.83;;;;;;;11.69;53.62;102568.97;5054203;28;20056;-79
2022/02/13 12:33:00;;;;;;;56.13;52.83;;;;;;;12.48;54.12;102570.97;5054176;28;20049;-79
2022/02/13 12:35:28;;;;;;;52.90;50.00;;;;;;;12.91;51.99;102566.06;5052834;28;20114;-80
2022/02/13 12:37:57;;;;;;;58.05;54.17;;;;;;;12.68;49.04;102566.88;5053961;28;20446;-79
2022/02/13 12:40:28;;;;;;;57.88;53.45;;;;;;;12.52;49.49;102564.28;5052334;28;20461;-80
2022/02/13 12:42:57;;;;;;;54.00;51.00;;;;;;;11.90;52.10;102562.34;5052360;28;20075;-80
2022/02/13 12:45:27;;;;;;;54.10;50.80;;;;;;;11.26;53.87;102564.03;5053972;28;20045;-81
2022/02/13 12:47:55;;;;;;;53.50;49.60;;;;;;;10.60;49.38;102568.38;5053153;28;20128;-78
2022/02/13 12:50:25;;;;;;;56.13;52.65;;;;;;;10.43;50.12;102554.19;5053097;28;20319;-79
2022/02/13 12:52:52;;;;;;;59.10;54.50;;;;;;;10.65;51.88;102556.28;5054614;28;20451;-80
2022/02/13 12:55:21;;;;;;;60.05;56.15;;;;;;;11.27;51.70;102542.56;5053824;28;20523;-79
2022/02/13 12:57:51;;;;;;;64.25;59.00;;;;;;;12.56;50.21;102546.97;5036814;28;20115;-81
2022/02/13 13:00:21;;;;;;;65.22;59.80;;;;;;;12.31;56.48;102541.72;5052625;28;20049;-80
2022/02/13 13:02:56;;;;;;;67.50;61.28;;;;;;;12.28;53.41;102535.91;5053231;28;20404;-81
2022/02/13 13:05:29;;;;;;;56.28;53.13;;;;;;;12.36;52.08;102535.88;5053942;28;20127;-78
2022/02/13 13:08:07;;;;;;;67.78;62.25;;;;;;;12.44;50.93;102533.19;5054052;28;20133;-80
2022/02/13 13:10:35;;;;;;;58.72;55.45;;;;;;;13.18;48.14;102525.53;5053898;28;20506;-81
2022/02/13 13:13:03;;;;;;;61.55;57.10;;;;;;;12.78;47.97;102524.81;5053932;28;20049;-82
2022/02/13 13:15:31;;;;;;;71.35;64.82;;;;;;;12.69;45.81;102514.38;5053010;28;20107;-78
2022/02/13 13:17:58;;;;;;;66.63;60.25;;;;;;;11.52;52.33;102522.09;5053174;28;20474;-81
2022/02/13 13:20:28;;;;;;;61.65;57.17;;;;;;;11.44;53.36;102514.13;5054446;28;20044;-78
2022/02/13 13:23:12;;;;;;;54.53;51.33;;;;;;;11.95;53.45;102513.88;5053256;28;20551;-80
2022/02/13 13:25:39;;;;;;;55.83;52.53;;;;;;;11.83;51.91;102503.59;5053990;28;20406;-79
2022/02/13 13:28:06;;;;;;;57.53;54.03;;;;;;;11.50;52.94;102508.16;5053529;28;20124;-79
2022/02/13 13:30:34;;;;;;;61.60;56.75;;;;;;;11.19;50.42;102502.66;5046878;28;20056;-80
2022/02/13 13:33:01;;;;;;;76.10;71.45;;;;;;;9.58;50.66;102508.91;5052617;28;20386;-80
2022/02/13 13:35:30;;;;;;;78.32;73.13;;;;;;;9.20;52.84;102503.00;5053694;28;20396;-83
2022/02/13 13:37:57;;;;;;;86.13;79.32;;;;;;;9.56;52.46;102514.38;5053543;28;20114;-80
2022/02/13 13:40:25;;;;;;;83.53;76.90;;;;;;;8.98;52.46;102506.94;5053474;28;20110;-79
2022/02/13 13:42:59;;;;;;;82.15;75.47;;;;;;;9.18;52.43;102499.66;5052699;28;20448;-79
2022/02/13 13:45:27;;;;;;;81.85;75.53;;;;;;;9.75;51.80;102500.06;5051969;28;20053;-79
2022/02/13 13:48:00;;;;;;;91.80;83.82;;;;;;;9.99;53.13;102496.72;5050868;28;20083;-81
2022/02/13 13:50:33;;;;;;;82.80;76.78;;;;;;;9.42;53.97;102495.53;5033148;28;20080;-80
2022/02/13 13:53:05;;;;;;;92.07;84.88;;;;;;;10.04;52.39;102494.38;5053016;28;20389;-81
2022/02/13 13:55:33;;;;;;;87.43;81.20;;;;;;;8.80;54.72;102488.38;5052785;28;20106;-79
2022/02/13 13:57:59;;;;;;;85.25;79.20;;;;;;;8.78;56.67;102494.84;5053001;28;20126;-78
2022/02/13 14:00:26;;;;;;;87.70;81.13;;;;;;;8.83;55.44;102492.53;5052415;28;20060;-78
2022/02/13 14:02:55;;;;;;;89.22;82.60;;;;;;;8.15;57.30;102496.41;5052343;28;20134;-81
2022/02/13 14:05:22;;;;;;;94.65;87.90;;;;;;;8.04;58.11;102492.13;5052586;28;20124;-80
2022/02/13 14:07:51;;;;;;;91.45;85.20;;;;;;;7.67;60.02;102493.94;5053048;28;20088;-82
2022/02/13 14:10:19;;;;;;;90.05;83.65;;;;;;;7.35;61.64;102495.09;5052961;28;20047;-79
2022/02/13 14:12:45;;;;;;;88.93;82.38;;;;;;;7.50;62.88;102491.06;5044095;28;20061;-80
2022/02/13 14:15:12;;;;;;;88.80;82.03;;;;;;;7.24;63.11;102485.53;5053968;28;20127;-81
2022/02/13 14:17:39;;;;;;;146.05;130.23;;;;;;;7.69;61.85;102487.53;5052850;28;20045;-80
2022/02/13 14:20:07;;;;;;;99.05;90.75;;;;;;;7.86;61.18;102485.94;5052601;28;20052;-80
2022/02/13 14:22:34;;;;;;;85.45;79.30;;;;;;;7.72;62.01;102483.78;5053027;28;20542;-81
2022/02/13 14:25:02;;;;;;;81.70;76.05;;;;;;;7.67;61.67;102475.44;5053050;28;20118;-81
2022/02/13 14:27:29;;;;;;;80.35;75.00;;;;;;;7.71;61.89;102477.63;5053120;28;20109;-80
2022/02/13 14:29:56;;;;;;;90.18;83.78;;;;;;;8.30;61.57;102475.59;5052578;28;20056;-79
2022/02/13 14:32:23;;;;;;;90.22;82.57;;;;;;;7.89;61.74;102479.53;5051993;28;20555;-78
2022/02/13 14:34:50;;;;;;;98.53;88.88;;;;;;;7.86;61.14;102466.59;5053185;28;20075;-80
2022/02/13 14:37:17;;;;;;;79.60;74.10;;;;;;;7.72;61.62;102466.09;5053010;28;20041;-80
2022/02/13 14:39:44;;;;;;;83.85;77.22;;;;;;;7.62;62.16;102461.81;5051930;28;20412;-79
2022/02/13 14:42:12;;;;;;;86.60;79.70;;;;;;;7.71;62.13;102468.88;5052714;28;20569;-81
2022/02/13 14:44:40;;;;;;;90.35;83.55;;;;;;;7.92;62.42;102455.44;5052671;28;20528;-80
2022/02/13 14:47:08;;;;;;;86.60;80.55;;;;;;;7.43;63.60;102460.88;5053364;28;20111;-79
2022/02/13 14:49:36;;;;;;;86.28;80.18;;;;;;;7.26;64.17;102462.47;5052410;28;20060;-78
2022/02/13 14:52:04;;;;;;;83.50;77.70;;;;;;;6.96;66.01;102465.22;5052523;28;20052;-80
2022/02/13 14:54:31;;;;;;;87.63;81.25;;;;;;;6.88;66.68;102460.66;5052683;28;20440;-81
2022/02/13 14:57:00;;;;;;;85.68;79.55;;;;;;;6.88;67.23;102456.22;5054677;28;20102;-78
2022/02/13 14:59:28;;;;;;;79.75;74.63;;;;;;;6.73;66.38;102457.59;5056802;28;20107;-78
2022/02/13 15:01:55;;;;;;;84.53;78.55;;;;;;;6.58;67.03;102454.53;5056095;28;20456;-79
2022/02/13 15:04:22;;;;;;;83.45;77.35;;;;;;;6.59;67.51;102452.72;5055878;28;20072;-79
2022/02/13 15:06:49;;;;;;;88.05;80.93;;;;;;;6.47;67.55;102454.63;5056328;28;20041;-81
2022/02/13 15:09:15;;;;;;;91.20;84.10;;;;;;;6.38;67.62;102451.03;5055610;28;20068;-81
2022/02/13 15:11:42;;;;;;;82.80;76.65;;;;;;;6.17;69.25;102452.91;5056325;28;20049;-78
2022/02/13 15:14:09;;;;;;;79.03;73.43;;;;;;;6.08;70.17;102451.06;5055466;28;20049;-78
2022/02/13 15:16:37;;;;;;;90.45;83.22;;;;;;;6.03;70.74;102443.56;5054198;28;20103;-79
2022/02/13 15:19:06;;;;;;;82.25;76.22;;;;;;;5.89;71.82;102451.81;5054890;28;20049;-79
2022/02/13 15:21:33;;;;;;;84.10;78.30;;;;;;;5.89;72.66;102455.28;5056356;28;20056;-79
2022/02/13 15:23:59;;;;;;;88.07;81.03;;;;;;;5.86;72.71;102450.28;5056043;28;20122;-79
2022/02/13 15:26:26;;;;;;;89.90;83.07;;;;;;;5.86;73.37;102449.44;5054959;28;20055;-80
2022/02/13 15:28:53;;;;;;;79.93;74.18;;;;;;;5.67;74.70;102444.91;5055317;28;20370;-79
2022/02/13 15:31:20;;;;;;;92.07;82.78;;;;;;;5.54;76.44;102441.63;5054839;28;20114;-80
2022/02/13 15:33:48;;;;;;;93.65;85.28;;;;;;;5.48;77.19;102443.84;5054780;28;20102;-79
2022/02/13 15:36:15;;;;;;;85.57;79.38;;;;;;;5.33;78.23;102436.41;5049377;28;20481;-78
2022/02/13 15:38:42;;;;;;;86.53;80.30;;;;;;;5.22;79.61;102438.13;5052091;28;20037;-78
2022/02/13 15:41:11;;;;;;;89.47;82.05;;;;;;;5.16;82.70;102436.03;5055047;28;20053;-78
2022/02/13 15:43:38;;;;;;;86.63;80.03;;;;;;;5.10;83.96;102441.81;5054677;28;20067;-78
2022/02/13 15:46:05;;;;;;;104.82;93.75;;;;;;;4.91;86.73;102449.56;5054586;28;20056;-79
2022/02/13 15:48:32;;;;;;;89.28;80.60;;;;;;;6.36;100.00;102441.59;5054616;28;20037;-79
2022/02/13 15:51:00;;;;;;;94.35;81.03;;;;;;;8.89;100.00;102442.41;5055347;28;20041;-79
2022/02/13 15:53:27;;;;;;;85.65;76.55;;;;;;;10.53;100.00;102438.00;5055311;28;20045;-80
2022/02/13 15:55:54;;;;;;;90.57;81.70;;;;;;;9.22;83.19;102437.38;5054565;28;20405;-82
2022/02/13 15:58:21;;;;;;;103.65;94.53;;;;;;;5.71;83.30;102439.22;5057043;28;20076;-79
2022/02/13 16:00:47;;;;;;;91.95;84.30;;;;;;;5.03;90.85;102438.00;5054770;28;20488;-81
2022/02/13 16:03:14;;;;;;;95.65;87.03;;;;;;;4.69;96.05;102432.03;5055553;28;20063;-80
2022/02/13 16:05:41;;;;;;;161.13;132.85;;;;;;;4.35;99.67;102430.34;5055639;28;20052;-79
2022/02/13 16:08:09;;;;;;;116.75;104.93;;;;;;;4.13;100.00;102433.03;5054150;28;20126;-81
2022/02/13 16:10:36;;;;;;;96.90;88.15;;;;;;;4.03;100.00;102430.31;5054475;28;20443;-79
2022/02/13 16:13:04;;;;;;;96.90;88.03;;;;;;;3.98;100.00;102435.06;5054735;28;20143;-79
2022/02/13 16:15:31;;;;;;;92.63;85.18;;;;;;;3.89;100.00;102436.63;5054468;28;20045;-81
2022/02/13 16:17:58;;;;;;;95.70;86.50;;;;;;;3.84;100.00;102427.44;5054926;28;20053;-80
2022/02/13 16:20:26;;;;;;;97.82;88.68;;;;;;;3.70;100.00;102430.31;5053583;28;20215;-79
2022/02/13 16:22:53;;;;;;;104.90;94.70;;;;;;;3.60;100.00;102436.28;5054211;28;20055;-79
2022/02/13 16:25:23;;;;;;;101.88;91.13;;;;;;;3.47;100.00;102435.53;5053763;28;20447;-78
2022/02/13 16:27:51;;;;;;;103.05;93.80;;;;;;;3.42;100.00;102433.28;5053965;28;20048;-79
2022/02/13 16:30:18;;;;;;;99.47;90.32;;;;;;;3.21;100.00;102430.50;5052243;28;20464;-80
2022/02/13 16:32:45;;;;;;;110.93;99.22;;;;;;;2.94;100.00;102429.94;5053516;28;20114;-79
2022/02/13 16:35:11;;;;;;;97.28;88.22;;;;;;;3.07;100.00;102432.47;5054134;28;20107;-81
2022/02/13 16:37:38;;;;;;;91.72;84.10;;;;;;;2.94;100.00;102425.50;5053925;28;20098;-79
2022/02/13 16:40:06;;;;;;;105.40;94.45;;;;;;;2.86;100.00;102425.25;5054552;28;20439;-81
2022/02/13 16:42:34;;;;;;;99.22;88.72;;;;;;;2.86;100.00;102427.03;5053728;28;20048;-81
2022/02/13 16:45:03;;;;;;;93.85;84.93;;;;;;;2.77;100.00;102419.84;5053661;28;20447;-80
2022/02/13 16:47:29;;;;;;;92.65;83.82;;;;;;;2.69;100.00;102420.38;5053217;28;20076;-80
2022/02/13 16:49:56;;;;;;;96.38;87.00;;;;;;;2.61;100.00;102426.22;5054087;28;20389;-80
2022/02/13 16:52:23;;;;;;;81.90;68.95;;;;;;;2.55;100.00;102424.03;5053321;28;20044;-79
2022/02/13 16:54:50;;;;;;;91.50;82.72;;;;;;;2.53;100.00;102426.75;5053446;28;20045;-79
2022/02/13 16:57:16;;;;;;;84.65;77.53;;;;;;;2.27;100.00;102427.81;5054646;28;20114;-81
2022/02/13 16:59:45;;;;;;;86.07;77.93;;;;;;;2.19;100.00;102433.59;5051000;28;20041;-78
2022/02/13 17:02:11;;;;;;;98.45;89.05;;;;;;;1.21;100.00;102424.69;5053032;28;20087;-78
2022/02/13 17:04:39;;;;;;;88.82;80.00;;;;;;;4.72;100.00;102431.78;5053217;28;20103;-80
2022/02/13 17:07:06;;;;;;;141.82;106.95;;;;;;;0.90;100.00;102424.09;5053378;28;20473;-79
2022/02/13 17:09:33;;;;;;;122.70;100.07;;;;;;;0.97;100.00;102421.91;5052883;28;20048;-79
2022/02/13 17:12:02;;;;;;;106.72;95.20;;;;;;;1.18;100.00;102427.50;5053416;28;20048;-79
2022/02/13 17:14:29;;;;;;;148.90;109.25;;;;;;;1.28;100.00;102433.78;5053682;28;20048;-80
2022/02/13 17:16:57;;;;;;;100.55;89.93;;;;;;;0.47;100.00;102426.03;5051878;28;20056;-80
2022/02/13 17:19:24;;;;;;;106.65;92.80;;;;;;;0.99;100.00;102427.03;5052495;28;20115;-80
2022/02/13 17:21:50;;;;;;;95.00;84.30;;;;;;;0.84;100.00;102418.41;5052995;28;20115;-81
2022/02/13 17:24:17;;;;;;;90.25;80.97;;;;;;;1.07;100.00;102428.22;5052780;28;20107;-81
2022/02/13 17:26:44;;;;;;;83.30;75.00;;;;;;;0.97;100.00;102421.06;5053138;28;20056;-79
2022/02/13 17:29:11;;;;;;;81.15;73.88;;;;;;;0.70;100.00;102429.81;5053136;28;20134;-80
2022/02/13 17:31:38;;;;;;;78.13;70.97;;;;;;;0.59;100.00;102413.97;5053053;28;20100;-80
2022/02/13 17:34:06;;;;;;;77.72;70.68;;;;;;;0.49;100.00;102416.34;5053486;28;20122;-79
2022/02/13 17:36:33;;;;;;;80.80;74.07;;;;;;;0.57;100.00;102426.28;5053121;28;20378;-80
2022/02/13 17:39:01;;;;;;;86.03;78.55;;;;;;;0.48;100.00;102413.81;5052335;28;20040;-80
2022/02/13 17:41:28;;;;;;;85.55;77.15;;;;;;;0.35;100.00;102414.59;5048634;28;20114;-79
2022/02/13 17:43:54;;;;;;;90.10;81.20;;;;;;;0.04;100.00;102413.09;5051719;28;20134;-80
2022/02/13 17:46:21;;;;;;;87.22;78.60;;;;;;;0.37;100.00;102420.56;5052328;28;20060;-78
2022/02/13 17:48:48;;;;;;;88.15;79.68;;;;;;;0.30;100.00;102405.38;5052603;28;20045;-81
2022/02/13 17:51:17;;;;;;;84.80;77.07;;;;;;;-0.08;100.00;102412.06;5053142;28;20049;-78
2022/02/13 17:53:44;;;;;;;74.97;68.80;;;;;;;-0.47;100.00;102420.56;5050790;28;20049;-79
2022/02/13 17:56:11;;;;;;;70.93;65.40;;;;;;;-0.65;100.00;102419.06;5047812;28;20051;-80
2022/02/13 17:58:38;;;;;;;75.32;68.28;;;;;;;-0.21;100.00;102418.13;5049525;28;20052;-81
2022/02/13 18:01:04;;;;;;;73.25;66.07;;;;;;;0.05;100.00;102403.47;5051017;28;20569;-81
2022/02/13 18:03:31;;;;;;;71.93;66.07;;;;;;;-0.13;100.00;102405.44;5051655;28;20048;-80
2022/02/13 18:05:58;;;;;;;73.80;68.15;;;;;;;-0.95;100.00;102409.50;5052568;28;20432;-81
2022/02/13 18:08:26;;;;;;;76.05;69.97;;;;;;;-0.19;100.00;102405.81;5052596;28;20056;-79
2022/02/13 18:10:53;;;;;;;53.58;48.90;;;;;;;-0.35;100.00;102403.31;5052686;28;20151;-80
2022/02/13 18:13:21;;;;;;;55.05;50.15;;;;;;;-0.25;100.00;102407.88;5052736;28;20053;-80
2022/02/13 18:15:47;;;;;;;58.65;52.92;;;;;;;-0.27;100.00;102407.16;5050403;28;20445;-80
2022/02/13 18:18:15;;;;;;;61.53;54.92;;;;;;;-0.15;100.00;102399.47;5052724;28;20056;-82
2022/02/13 18:20:41;;;;;;;60.35;53.70;;;;;;;-0.99;100.00;102393.19;5052566;28;20053;-78